createdAt,value
2023-05-14T00:16:20.301Z,15.90
2023-05-14T00:18:48.414Z,15.90
2023-05-14T00:21:17.083Z,15.80
2023-05-14T00:23:47.138Z,15.80
2023-05-14T00:26:14.904Z,15.80
2023-05-14T00:28:42.699Z,15.80
2023-05-14T00:31:10.448Z,15.80
2023-05-14T00:36:09.122Z,15.60
2023-05-14T00:38:37.004Z,15.50
2023-05-14T00:41:05.118Z,15.50
2023-05-14T00:43:33.166Z,15.50
2023-05-14T00:46:01.289Z,15.40
2023-05-14T00:48:29.104Z,15.40
2023-05-14T00:55:56.779Z,15.30
2023-05-14T00:58:25.707Z,15.20
2023-05-14T01:00:53.456Z,15.20
2023-05-14T01:06:01.035Z,15.10
2023-05-14T01:08:37.376Z,15.00
2023-05-14T01:11:11.877Z,15.00
2023-05-14T01:13:50.826Z,14.90
2023-05-14T01:16:20.779Z,14.90
2023-05-14T01:18:51.779Z,14.90
2023-05-14T01:21:40.753Z,14.80
2023-05-14T01:24:09.796Z,14.80
2023-05-14T01:26:38.108Z,14.80
2023-05-14T01:29:14.216Z,14.80
2023-05-14T01:31:45.708Z,14.70
2023-05-14T01:34:15.276Z,14.70
2023-05-14T01:36:44.862Z,14.70
2023-05-14T01:39:15.105Z,14.70
2023-05-14T01:41:43.840Z,14.70
2023-05-14T01:46:40.027Z,14.70
2023-05-14T01:49:08.015Z,14.60
2023-05-14T01:51:35.860Z,14.60
2023-05-14T01:54:05.335Z,14.50
2023-05-14T01:56:33.150Z,14.50
2023-05-14T01:59:00.959Z,14.50
2023-05-14T02:03:57.088Z,14.50
2023-05-14T02:08:53.015Z,14.50
2023-05-14T02:11:22.437Z,14.50
2023-05-14T02:13:50.184Z,14.50
2023-05-14T02:16:19.177Z,14.50
2023-05-14T02:18:47.103Z,14.50
2023-05-14T02:23:44.129Z,14.40
2023-05-14T02:26:12.528Z,14.40
2023-05-14T02:28:41.737Z,14.30
2023-05-14T02:33:37.826Z,14.30
2023-05-14T02:36:05.727Z,14.20
2023-05-14T02:38:33.512Z,14.20
2023-05-14T02:41:01.602Z,14.10
2023-05-14T02:43:29.418Z,14.10
2023-05-14T02:45:58.484Z,14.10
2023-05-14T02:48:26.219Z,14.00
2023-05-14T02:50:54.010Z,14.00
2023-05-14T02:53:21.804Z,14.00
2023-05-14T02:55:49.786Z,14.00
2023-05-14T02:58:17.619Z,13.90
2023-05-14T03:00:45.384Z,13.80
2023-05-14T03:03:15.128Z,13.70
2023-05-14T03:05:43.381Z,13.70
2023-05-14T03:08:11.168Z,13.60
2023-05-14T03:10:38.945Z,13.60
2023-05-14T03:13:06.761Z,13.60
2023-05-14T03:15:34.562Z,13.60
2023-05-14T03:18:02.458Z,13.60
2023-05-14T03:20:31.615Z,13.60
2023-05-14T03:25:27.650Z,13.50
2023-05-14T03:27:55.433Z,13.60
2023-05-14T03:30:23.617Z,13.60
2023-05-14T03:32:51.774Z,13.60
2023-05-14T03:35:19.844Z,13.60
2023-05-14T03:40:17.436Z,13.50
2023-05-14T03:42:45.354Z,13.50
2023-05-14T03:45:13.181Z,13.50
2023-05-14T03:47:40.980Z,13.50
2023-05-14T03:52:37.630Z,13.60
2023-05-14T03:55:07.780Z,13.60
2023-05-14T03:57:35.693Z,13.50
2023-05-14T04:00:03.518Z,13.50
2023-05-14T04:02:31.368Z,13.40
2023-05-14T04:04:59.303Z,13.50
2023-05-14T04:07:27.138Z,13.40
2023-05-14T04:09:54.946Z,13.40
2023-05-14T04:12:24.087Z,13.40
2023-05-14T04:14:51.864Z,13.30
2023-05-14T04:19:48.012Z,13.30
2023-05-14T04:22:15.845Z,13.20
2023-05-14T04:24:43.634Z,13.30
2023-05-14T04:29:40.953Z,13.30
2023-05-14T04:34:37.271Z,13.30
2023-05-14T04:37:05.520Z,13.20
2023-05-14T04:42:01.668Z,13.30
2023-05-14T04:46:58.975Z,13.30
2023-05-14T04:51:54.983Z,13.30
2023-05-14T04:56:51.320Z,13.20
2023-05-14T04:59:19.189Z,13.20
2023-05-14T05:01:47.150Z,13.60
2023-05-14T05:04:16.486Z,13.20
2023-05-14T05:09:12.570Z,13.10
2023-05-14T05:14:08.558Z,13.30
2023-05-14T05:16:36.473Z,13.40
2023-05-14T05:21:34.037Z,13.60
2023-05-14T05:26:30.003Z,13.70
2023-05-14T05:28:57.903Z,13.70
2023-05-14T05:31:25.803Z,13.80
2023-05-14T05:38:51.247Z,13.70
2023-05-14T05:41:19.011Z,13.60
2023-05-14T05:43:46.832Z,13.50
2023-05-14T05:46:14.644Z,13.50
2023-05-14T05:48:42.508Z,13.50
2023-05-14T05:51:10.348Z,13.60
2023-05-14T05:56:08.432Z,13.70
2023-05-14T05:58:36.246Z,13.90
2023-05-14T06:01:04.123Z,14.00
2023-05-14T06:03:31.856Z,14.10
2023-05-14T06:05:59.730Z,14.20
2023-05-14T06:08:27.496Z,14.30
2023-05-14T06:10:55.452Z,14.40
2023-05-14T06:13:24.543Z,14.50
2023-05-14T06:23:16.864Z,14.60
2023-05-14T06:25:44.657Z,14.50
2023-05-14T06:28:13.147Z,14.60
2023-05-14T06:30:42.246Z,14.60
2023-05-14T06:33:10.092Z,14.60
2023-05-14T06:35:37.876Z,14.60
2023-05-14T06:38:05.710Z,14.60
2023-05-14T06:40:33.456Z,14.60
2023-05-14T06:43:01.239Z,14.60
2023-05-14T06:45:29.790Z,14.70
2023-05-14T06:47:59.974Z,14.80
2023-05-14T06:50:28.020Z,14.90
2023-05-14T06:52:56.062Z,15.00
2023-05-14T06:55:24.841Z,14.90
2023-05-14T06:57:53.158Z,14.90
2023-05-14T07:00:22.199Z,14.90
2023-05-14T07:02:50.307Z,15.00
2023-05-14T07:05:19.618Z,15.10
2023-05-14T07:07:47.489Z,15.10
2023-05-14T07:10:15.253Z,15.20
2023-05-14T07:12:43.103Z,15.20
2023-05-14T07:15:12.173Z,15.20
2023-05-14T07:17:40.066Z,15.20
2023-05-14T07:20:09.070Z,14.20
2023-05-14T07:22:38.344Z,15.30
2023-05-14T07:25:08.066Z,15.20
2023-05-14T07:27:35.859Z,15.20
2023-05-14T07:30:04.149Z,15.30
2023-05-14T07:32:31.956Z,15.30
2023-05-14T07:34:59.793Z,15.40
2023-05-14T07:37:27.733Z,15.30
2023-05-14T07:42:35.202Z,15.50
2023-05-14T07:45:04.396Z,15.50
2023-05-14T07:52:29.051Z,15.60
2023-05-14T07:54:58.241Z,15.70
2023-05-14T07:57:26.390Z,15.80
2023-05-14T07:59:54.246Z,15.90
2023-05-14T08:04:50.451Z,16.00
2023-05-14T08:09:46.352Z,16.10
2023-05-14T08:12:15.965Z,16.10
2023-05-14T08:14:43.739Z,16.10
2023-05-14T08:17:11.613Z,16.20
2023-05-14T08:19:39.502Z,16.20
2023-05-14T08:22:07.417Z,16.20
2023-05-14T08:24:35.346Z,16.20
2023-05-14T08:27:03.185Z,16.20
2023-05-14T08:29:32.825Z,16.30
2023-05-14T08:34:44.184Z,16.60
2023-05-14T08:39:40.134Z,16.80
2023-05-14T08:42:08.757Z,16.90
2023-05-14T08:44:45.881Z,17.10
2023-05-14T08:47:16.388Z,17.20
2023-05-14T08:49:47.488Z,17.30
2023-05-14T08:52:19.259Z,17.40
2023-05-14T08:54:49.076Z,17.40
2023-05-14T08:57:19.581Z,17.40
2023-05-14T08:59:49.164Z,17.50
2023-05-14T09:02:18.802Z,17.40
2023-05-14T09:04:48.386Z,17.30
2023-05-14T09:09:45.849Z,17.20
2023-05-14T09:12:13.653Z,17.10
2023-05-14T09:14:41.459Z,17.10
2023-05-14T09:19:40.841Z,17.00
2023-05-14T09:22:11.038Z,17.30
2023-05-14T09:27:07.883Z,17.30
2023-05-14T09:29:37.138Z,17.30
2023-05-14T09:32:07.495Z,17.30
2023-05-14T09:34:38.237Z,17.40
2023-05-14T09:37:07.570Z,17.30
2023-05-14T09:39:37.204Z,17.40
2023-05-14T09:49:36.839Z,17.60
2023-05-14T09:52:07.314Z,17.50
2023-05-14T09:54:36.307Z,17.60
2023-05-14T09:59:32.339Z,17.30
2023-05-14T10:02:01.317Z,17.30
2023-05-14T10:04:29.364Z,17.40
2023-05-14T10:06:58.738Z,17.50
2023-05-14T10:09:30.443Z,17.70
2023-05-14T10:12:01.865Z,17.80
2023-05-14T10:14:36.264Z,17.90
2023-05-14T10:17:06.740Z,17.80
2023-05-14T10:19:35.557Z,17.80
2023-05-14T10:22:08.329Z,17.90
2023-05-14T10:24:38.726Z,18.00
2023-05-14T10:27:07.241Z,18.00
2023-05-14T10:29:35.749Z,18.20
2023-05-14T10:32:06.470Z,18.20
2023-05-14T10:34:37.545Z,18.40
2023-05-14T10:37:08.987Z,18.40
2023-05-14T10:39:47.690Z,18.40
2023-05-14T10:42:18.837Z,18.50
2023-05-14T10:44:55.529Z,18.50
2023-05-14T10:47:23.597Z,18.60
2023-05-14T10:49:57.082Z,18.60
2023-05-14T10:52:26.879Z,18.60
2023-05-14T10:54:56.144Z,18.50
2023-05-14T10:57:26.108Z,18.40
2023-05-14T10:59:56.167Z,18.40
2023-05-14T11:02:27.168Z,18.30
2023-05-14T11:05:00.305Z,18.40
2023-05-14T11:07:34.665Z,18.50
2023-05-14T11:10:05.569Z,18.60
2023-05-14T11:12:34.284Z,18.70
2023-05-14T11:15:03.844Z,18.80
2023-05-14T11:17:33.045Z,18.80
2023-05-14T11:20:01.646Z,18.80
2023-05-14T11:22:29.664Z,18.90
2023-05-14T11:24:58.831Z,19.00
2023-05-14T11:27:27.227Z,19.00
2023-05-14T11:29:55.947Z,19.00
2023-05-14T11:32:23.870Z,19.00
2023-05-14T11:34:51.817Z,19.10
2023-05-14T11:37:20.344Z,19.10
2023-05-14T11:39:49.940Z,19.20
2023-05-14T11:42:19.809Z,19.20
2023-05-14T11:44:49.835Z,19.20
2023-05-14T11:47:18.783Z,23.90
2023-05-14T11:49:46.985Z,19.00
2023-05-14T11:52:19.193Z,19.00
2023-05-14T11:54:47.464Z,19.00
2023-05-14T11:57:17.806Z,19.00
2023-05-14T11:59:48.449Z,19.10
2023-05-14T12:02:18.581Z,19.20
2023-05-14T12:04:51.131Z,19.10
2023-05-14T12:07:19.301Z,19.20
2023-05-14T12:09:49.426Z,19.10
2023-05-14T12:12:19.925Z,19.10
2023-05-14T12:14:50.268Z,19.10
2023-05-14T12:17:19.483Z,19.10
2023-05-14T12:19:48.840Z,19.20
2023-05-14T12:22:18.706Z,19.20
2023-05-14T12:24:54.904Z,19.40
2023-05-14T12:27:24.285Z,19.60
2023-05-14T12:30:09.123Z,19.70
2023-05-14T12:32:48.786Z,20.00
2023-05-14T12:35:16.949Z,20.10
2023-05-14T12:37:44.761Z,20.30
2023-05-14T12:42:41.269Z,20.40
2023-05-14T12:45:12.736Z,20.50
2023-05-14T12:47:40.682Z,20.40
2023-05-14T12:50:09.421Z,20.40
2023-05-14T12:52:39.718Z,20.40
2023-05-14T12:55:08.905Z,20.40
2023-05-14T12:57:36.804Z,20.40
2023-05-14T13:02:42.731Z,20.60
2023-05-14T13:05:12.331Z,20.80
2023-05-14T13:07:40.300Z,20.80
2023-05-14T13:10:09.246Z,20.80
2023-05-14T13:15:05.993Z,20.80
2023-05-14T13:20:04.574Z,21.10
2023-05-14T13:22:32.379Z,21.10
2023-05-14T13:27:28.441Z,21.00
2023-05-14T13:29:56.695Z,21.00
2023-05-14T13:32:24.530Z,21.00
2023-05-14T13:34:52.446Z,21.30
2023-05-14T13:37:21.578Z,21.30
2023-05-14T13:39:51.244Z,21.30
2023-05-14T13:42:19.351Z,21.40
2023-05-14T13:44:47.106Z,21.40
2023-05-14T13:47:14.938Z,21.50
2023-05-14T13:49:42.724Z,21.50
2023-05-14T13:52:10.557Z,21.50
2023-05-14T13:54:39.692Z,21.60
2023-05-14T13:57:07.446Z,21.60
2023-05-14T13:59:35.319Z,21.60
2023-05-14T14:02:03.506Z,21.60
2023-05-14T14:04:31.542Z,21.70
2023-05-14T14:06:59.562Z,21.80
2023-05-14T14:09:27.534Z,21.80
2023-05-14T14:11:56.749Z,21.80
2023-05-14T14:14:24.597Z,21.70
2023-05-14T14:16:52.459Z,21.70
2023-05-14T14:19:20.443Z,21.70
2023-05-14T14:21:48.498Z,21.70
2023-05-14T14:24:16.276Z,22.10
2023-05-14T14:26:44.065Z,22.10
2023-05-14T14:29:13.278Z,22.20
2023-05-14T14:31:41.081Z,22.40
2023-05-14T14:34:08.849Z,22.30
2023-05-14T14:36:36.634Z,22.30
2023-05-14T14:39:04.783Z,22.10
2023-05-14T14:41:32.598Z,22.00
2023-05-14T14:44:02.630Z,22.10
2023-05-14T14:46:31.834Z,22.20
2023-05-14T14:51:28.182Z,22.30
2023-05-14T14:56:26.645Z,22.60
2023-05-14T14:58:54.554Z,22.80
2023-05-14T15:01:22.858Z,23.00
2023-05-14T15:03:52.352Z,23.20
2023-05-14T15:06:20.317Z,23.20
2023-05-14T15:08:48.080Z,23.40
2023-05-14T15:11:16.868Z,23.40
2023-05-14T15:13:44.716Z,23.50
2023-05-14T15:16:13.592Z,23.60
2023-05-14T15:18:41.472Z,23.70
2023-05-14T15:21:10.656Z,23.80
2023-05-14T15:23:38.505Z,23.70
2023-05-14T15:26:06.505Z,23.50
2023-05-14T15:28:34.273Z,23.30
2023-05-14T15:31:02.546Z,23.40
2023-05-14T15:33:30.559Z,23.40
2023-05-14T15:35:58.446Z,23.30
2023-05-14T15:38:27.740Z,22.70
2023-05-14T15:40:55.674Z,22.20
2023-05-14T15:43:23.781Z,21.60
2023-05-14T15:45:51.630Z,21.10
2023-05-14T15:48:19.589Z,20.80
2023-05-14T15:50:49.768Z,20.40
2023-05-14T15:53:18.048Z,19.90
2023-05-14T15:55:49.176Z,19.90
2023-05-14T15:58:17.011Z,19.60
2023-05-14T16:00:47.143Z,19.40
2023-05-14T16:03:15.040Z,19.40
2023-05-14T16:05:44.707Z,19.30
2023-05-14T16:08:12.540Z,19.30
2023-05-14T16:10:40.451Z,19.50
2023-05-14T16:13:09.544Z,19.70
2023-05-14T16:15:37.325Z,19.90
2023-05-14T16:18:05.696Z,19.90
2023-05-14T16:20:34.572Z,20.10
2023-05-14T16:23:02.366Z,20.20
2023-05-14T16:25:31.157Z,20.40
2023-05-14T16:27:59.065Z,20.70
2023-05-14T16:30:28.275Z,21.00
2023-05-14T16:32:56.113Z,21.10
2023-05-14T16:37:52.091Z,21.40
2023-05-14T16:40:20.192Z,21.80
2023-05-14T16:45:17.265Z,21.90
2023-05-14T16:47:46.404Z,21.90
2023-05-14T16:52:42.485Z,22.00
2023-05-14T16:55:10.849Z,22.20
2023-05-14T16:57:38.584Z,22.20
2023-05-14T17:00:07.787Z,22.10
2023-05-14T17:02:35.966Z,22.00
2023-05-14T17:05:06.090Z,21.90
2023-05-14T17:07:33.979Z,21.80
2023-05-14T17:10:01.918Z,21.70
2023-05-14T17:12:29.798Z,21.60
2023-05-14T17:14:57.610Z,21.60
2023-05-14T17:17:25.419Z,21.50
2023-05-14T17:19:53.201Z,21.50
2023-05-14T17:22:22.656Z,21.60
2023-05-14T17:24:50.468Z,21.50
2023-05-14T17:27:18.248Z,21.30
2023-05-14T17:29:46.087Z,21.20
2023-05-14T17:32:13.989Z,21.20
2023-05-14T17:34:41.737Z,20.90
2023-05-14T17:37:09.541Z,20.90
2023-05-14T17:39:38.694Z,20.70
2023-05-14T17:42:09.011Z,20.50
2023-05-14T17:44:37.089Z,20.30
2023-05-14T17:47:05.249Z,20.20
2023-05-14T17:49:33.089Z,20.10
2023-05-14T17:52:00.908Z,19.90
2023-05-14T17:54:28.884Z,19.90
2023-05-14T17:56:58.125Z,19.60
2023-05-14T17:59:26.177Z,19.50
2023-05-14T18:01:53.951Z,19.50
2023-05-14T18:04:21.766Z,19.20
2023-05-14T18:06:49.558Z,19.10
2023-05-14T18:11:45.956Z,18.90
2023-05-14T18:14:15.067Z,18.80
2023-05-14T18:19:11.520Z,18.70
2023-05-14T18:21:39.601Z,18.60
2023-05-14T18:24:08.195Z,18.50
2023-05-14T18:26:35.986Z,18.50
2023-05-14T18:29:03.904Z,18.30
2023-05-14T18:31:33.176Z,18.30
2023-05-14T18:34:01.043Z,18.30
2023-05-14T18:36:28.884Z,18.10
2023-05-14T18:38:56.707Z,18.10
2023-05-14T18:41:24.581Z,18.00
2023-05-14T18:43:52.376Z,18.00
2023-05-14T18:51:18.689Z,17.80
2023-05-14T18:53:47.260Z,17.80
2023-05-14T18:56:15.703Z,17.80
2023-05-14T19:01:14.098Z,17.70
2023-05-14T19:06:11.864Z,17.70
2023-05-14T19:08:39.650Z,17.60
2023-05-14T19:11:07.995Z,17.60
2023-05-14T19:13:35.766Z,17.50
2023-05-14T19:16:03.890Z,17.50
2023-05-14T19:18:31.839Z,17.50
2023-05-14T19:20:59.938Z,17.40
2023-05-14T19:23:32.651Z,17.40
2023-05-14T19:26:01.122Z,17.30
2023-05-14T19:31:00.466Z,17.20
2023-05-14T19:33:28.722Z,17.20
2023-05-14T19:35:57.314Z,17.20
2023-05-14T19:40:57.053Z,17.20
2023-05-14T19:43:25.447Z,17.20
2023-05-14T19:45:53.617Z,17.10
2023-05-14T19:48:21.391Z,17.10
2023-05-14T19:50:49.536Z,17.00
2023-05-14T19:53:17.450Z,17.00
2023-05-14T19:55:45.380Z,17.00
2023-05-14T19:58:14.565Z,17.00
2023-05-14T20:00:42.665Z,17.10
2023-05-14T20:03:10.900Z,17.00
2023-05-14T20:05:38.775Z,17.00
2023-05-14T20:08:08.047Z,17.00
2023-05-14T20:10:36.177Z,17.00
2023-05-14T20:13:04.164Z,16.90
2023-05-14T20:18:03.449Z,16.90
2023-05-14T20:20:33.247Z,16.90
2023-05-14T20:23:01.625Z,16.90
2023-05-14T20:25:29.588Z,16.90
2023-05-14T20:27:57.624Z,17.00
2023-05-14T20:30:25.608Z,16.90
2023-05-14T20:32:54.985Z,16.90
2023-05-14T20:35:23.194Z,16.90
2023-05-14T20:37:51.328Z,16.90
2023-05-14T20:40:19.328Z,16.80
2023-05-14T20:42:47.178Z,16.80
2023-05-14T20:47:43.343Z,16.80
2023-05-14T20:50:13.581Z,16.80
2023-05-14T20:52:41.451Z,16.80
2023-05-14T20:55:10.295Z,16.70
2023-05-14T20:57:38.112Z,16.60
2023-05-14T21:00:09.865Z,18.10
2023-05-14T21:02:37.970Z,16.50
2023-05-14T21:05:06.885Z,16.50
2023-05-14T21:07:36.453Z,16.40
2023-05-14T21:10:04.311Z,16.50
2023-05-14T21:12:32.107Z,16.40
2023-05-14T21:14:59.918Z,16.40
2023-05-14T21:17:27.821Z,16.40
2023-05-14T21:19:55.583Z,16.40
2023-05-14T21:22:23.600Z,16.40
2023-05-14T21:24:52.778Z,16.40
2023-05-14T21:27:20.680Z,16.40
2023-05-14T21:29:48.404Z,16.50
2023-05-14T21:32:16.160Z,16.50
2023-05-14T21:34:44.390Z,16.50
2023-05-14T21:37:12.211Z,16.50
2023-05-14T21:39:39.986Z,16.50
2023-05-14T21:42:10.489Z,16.50
2023-05-14T21:44:38.309Z,16.50
2023-05-14T21:47:06.705Z,16.50
2023-05-14T21:49:34.445Z,16.50
2023-05-14T21:52:02.246Z,14.90
2023-05-14T21:54:30.047Z,16.50
2023-05-14T21:56:57.901Z,16.50
2023-05-14T21:59:27.019Z,16.50
2023-05-14T22:02:06.966Z,16.50
2023-05-14T22:04:35.556Z,16.50
2023-05-14T22:07:03.496Z,16.40
2023-05-14T22:09:31.326Z,16.40
2023-05-14T22:11:59.205Z,16.30
2023-05-14T22:14:28.434Z,16.40
2023-05-14T22:16:56.626Z,16.30
2023-05-14T22:19:25.717Z,16.30
2023-05-14T22:21:53.494Z,16.30
2023-05-14T22:24:21.259Z,16.30
2023-05-14T22:26:49.089Z,16.30
2023-05-14T22:29:16.905Z,16.30
2023-05-14T22:31:46.101Z,16.20
2023-05-14T22:34:13.906Z,16.20
2023-05-14T22:36:41.975Z,16.20
2023-05-14T22:39:11.254Z,16.10
2023-05-14T22:41:40.475Z,16.10
2023-05-14T22:44:08.284Z,16.10
2023-05-14T22:46:36.192Z,16.10
2023-05-14T22:49:05.795Z,16.10
2023-05-14T22:51:33.611Z,16.10
2023-05-14T22:54:02.024Z,16.00
2023-05-14T22:56:30.062Z,16.10
2023-05-14T22:59:00.163Z,16.00
2023-05-14T23:01:28.430Z,16.00
2023-05-14T23:03:56.317Z,16.00
2023-05-14T23:06:26.068Z,15.90
2023-05-14T23:08:53.881Z,15.90
2023-05-14T23:11:22.331Z,15.90
2023-05-14T23:13:50.193Z,15.90
2023-05-14T23:16:17.982Z,15.90
2023-05-14T23:18:46.143Z,15.80
2023-05-14T23:21:14.211Z,15.80
2023-05-14T23:23:43.409Z,15.80
2023-05-14T23:26:11.283Z,15.80
2023-05-14T23:28:39.044Z,15.80
2023-05-14T23:31:06.873Z,16.00
2023-05-14T23:33:34.628Z,15.80
2023-05-14T23:36:02.489Z,15.80
2023-05-14T23:38:30.302Z,15.70
2023-05-14T23:40:59.395Z,15.80
2023-05-14T23:43:27.144Z,15.80
2023-05-14T23:45:55.085Z,15.80
2023-05-14T23:48:22.920Z,15.80
2023-05-14T23:50:50.739Z,15.90
2023-05-14T23:53:18.694Z,15.90
2023-05-14T23:55:46.508Z,15.90
2023-05-14T23:58:15.697Z,16.00
